Capitan FAP Carlos Martinez De Pinillos International Airport
SPRU : rendu visible

Aérodrome :











RETROUVEZ-NOUS SUR...

 
LOGIN :

S'inscrire | Disclaimer

   EN    FR    IT 

 









Légende :    VFR   VFR Marginal   IFR   IFR Intensif   IFR Très Intensif
Visi : 
Plafond : 
>= 8 km
>= 3000ft
5 à 8 km
1000 à 3000 ft
1500m à 5 km
500 à 1000 ft
800 à 1500m
200 à 500 ft
< 800m
< 200 ft
Symboles :   Orages  Brouillard  Fortes neiges  Fortes précipitations  Vent > 20 kt






- Altitude de l'aérodrome : 106 ft
- Code IATA : TRU


SPRU - Capitan FAP Carlos Martinez De Pinillos International

DERNIER METAR :
  • 210300Z 14006KT 9999 FEW130 22/20 Q1013 RMK PP000

METARs EXPIRÉS :
  • 210200Z 15008KT 9999 SCT100 22/20 Q1011 RMK PP000
  • 210100Z 15008KT 9999 BKN070 22/20 Q1010 RMK PP000

TAF SPRU
Valide du 21 à 00h jusqu'au 22 à 00h UTC


202300Z 2100/2124 15007KT 7000 SCT012 BKN100 TX25/2119Z TN20/2111Z
BECMG 2108/2110 4000 BR BKN012
TEMPO 2111/2114 2000 BR OVC002
BECMG 2115/2116 7000 NSW SCT012 SCT060



MET'MAP, la Météo Aéronautique d'un coup d'oeil ! - Copyright ORBIFLY Décembre 2007 - Disclaimer

ORBIFLY MET'MAP TEAM :

Programmation & Développement : Alexandra Zaïnal
Sur une idée originale de : Baudouin d'Aumeries
Assistance à la programmation : Marc-Olivier Méhu
Soutien technique & logistique : Manuel Goepfert

Contact : metmap@orbifly.com




SOURCES & CREDITS :

   NOAA       Earth
Advisory